Athens, Wisconsin
Current Conditions -  °F | °C
As of 9:15 AM on Thursday 23 Oct 2014 (Local Time) from KMDZ Reporting Station
Light Rain Light Rain  
Wind Chill: 36°   Ceiling: 1300
Heat Index: 41°   Visibility: 4mi
Dew Point: 40°   Wind: 7mph
Humidity: 96%   Direction: 150°SSE
Pressure: 30.05"   Gusts: NA
Location:  45.03°N, 90.07°W
Report Text: KMDZ 231415Z AUTO 15006KT 4SM -RA OVC013 05/04 A3005 RMK AO2 P0001 T00500044
Loading
Personal Weather Stations






























Interactive Weather Map
Tropical Storm Tracking
New forecast layout! Learn more

10-Day Weather Forecast

Advertisements
Track Severe Weather on mobile